Long Island Mac Arthur Airport
KISP : now visible

Airfield :











YOU CAN JOIN US ON...

 
LOGIN :

Register | Disclaimer

   EN    FR    IT 

 









Legend :    VFR   Marginal VFR   IFR   Intensive IFR   Very Intensive IFR
Visi :
Ceiling :
>= 8 km
>= 3000ft
5 to 8 km
1000 to 3000 ft
1500m to 5 km
500 to 1000 ft
800 to 1500m
200 to 500 ft
< 800m
< 200 ft
Symbols :   Thunderstorms  Fog  Heavy snow  Heavy precipitations  Wind > 20 kt






- Airport Elevation : 99 ft
- IATA code : ISP


KISP - Long Island Mac Arthur

CURRENT METAR :
  • 181256Z 08010G19KT 1 1/2SM R06/5500V6000FT -RA BR OVC006 08/07 A3003 RMK AO2 SLP169 P0004 T00780072

EXPIRED METARs :
  • 181156Z 08012G19KT 1 1/2SM -RA BR OVC006 08/07 A3001 RMK AO2 SLP163 P0001 60009 70013 T00780072 10083 20078 53013
  • 181056Z 08010G22KT 2SM -RA BR OVC005 08/07 A3000 RMK AO2 SLP158 P0003 T00780072
  • 180956Z 07011G16KT 2SM -RA BR OVC005 08/08 A2998 RMK AO2 SLP153 P0001 T00780078
  • 180930Z AUTO 08013G21KT 2 1/2SM -RA BR OVC005 08/07 A2997 RMK AO2 P0000 T00830072
  • 180915Z AUTO 08013G23KT 3SM -RA BR OVC005 08/07 A2997 RMK AO2 P0000 T00780072
  • 180856Z AUTO 08013G21KT 3SM -RA BR OVC005 08/07 A2997 RMK AO2 SLP150 P0002 60004 T00780072 55011
  • 180846Z AUTO 09014G21KT 3SM -RA BR OVC006 08/07 A2997 RMK AO2 P0002 T00780072
  • 180810Z AUTO 09012G24KT 2 1/2SM -RA BR OVC006 08/07 A2998 RMK AO2 P0000 T00830072

TAF KISP
Valid from the 18 at 12:00 until the 19 at 12:00 UTC


181134Z 1812/1912 07012G24KT 2SM -DZ BR OVC005
FM181900 05013G22KT 4SM BR OVC007
FM182300 05009KT P6SM SCT007 OVC015
FM190400 06008KT P6SM SCT030 OVC050
KZBW FIR / North America



MET'MAP, your aeronautical weather chart ! - Copyright ORBIFLY December 2007 - Disclaimer

ORBIFLY MET'MAP TEAM :

Programming & Development : Alexandra Zaïnal
Original concept : Baudouin d'Aumeries
Technical & hardware support : Manuel Goepfert
Assistance : Marc-Olivier Méhu




SOURCES & CREDITS :

   NOAA       Earth
Advisory